Flight Track Log - Related Links

Times and Time Zones

All times are in EDT time to prevent confusion due to time zone crossing. See the SWA1385 flight status page for this flight to view local times or setup timezone preferences in your user account.

Time Position Orientation Groundspeed Altitude Reporting Facility
EDT Latitude Longitude Course Direction KTS MPH feet Rate Location/Type
Sat 03:13:12 PM 40.5006 -80.3619 266° West 194 223 4,500  Level Cleveland Center
Sat 03:14:12 PM 40.5006 -80.4439 270° West 205 236 6,500 2,650 Climbing Cleveland Center
Sat 03:15:12 PM 40.4986 -80.5422 269° West 240 276 9,800 2,550 Climbing Cleveland Center
Sat 03:16:12 PM 40.4967 -80.6542 269° West 278 320 11,600 2,400 Climbing Cleveland Center
Sat 03:17:00 PM 40.4667 -81.0508 270° West  Level FlightAware Approximate
Sat 03:17:12 PM 40.4944 -80.7825 269° West 323 372 14,600  Level Cleveland Center
Sat 03:18:00 PM 40.4612 -81.1900 266° West  Level FlightAware Approximate
Sat 03:18:12 PM 40.4919 -80.9133 269° West 348 400 17,700  Level Cleveland Center
Sat 03:19:12 PM 40.4894 -81.0528 269° West 371 427 20,100 2,550 Climbing Cleveland Center
Sat 03:20:12 PM 40.4844 -81.1919 267° West 376 433 22,800 2,111 Climbing Cleveland Center
Sat 03:21:54 PM 40.4772 -81.4358 268° West 396 456 25,800 1,767 Climbing Indianapolis Center
Sat 03:22:55 PM 40.4736 -81.5892 268° West 409 471 27,600 2,000 Climbing Indianapolis Center
Sat 03:23:57 PM 40.4689 -81.7417 268° West 412 474 29,900 2,177 Climbing Indianapolis Center
Sat 03:24:59 PM 40.4653 -81.8869 268° West 398 458 32,100 2,293 Climbing Indianapolis Center
Sat 03:26:00 PM 40.4611 -82.0250 268° West 379 436 34,600 1,902 Climbing Indianapolis Center
Sat 03:27:02 PM 40.4567 -82.1567 268° West 362 417 36,000 677 Climbing Indianapolis Center
Sat 03:28:04 PM 40.4431 -82.3114 263° West 362 417 36,000  Level Indianapolis Center
Sat 03:29:05 PM 40.4325 -82.4447 264° West 363 418 36,000  Level Indianapolis Center
Sat 03:30:07 PM 40.4206 -82.5789 263° West 368 423 36,000  Level Indianapolis Center
Sat 03:31:09 PM 40.4092 -82.7144 264° West 370 426 36,000  Level Indianapolis Center
Sat 03:32:10 PM 40.3972 -82.8553 264° West 370 426 36,000  Level Indianapolis Center
Sat 03:33:12 PM 40.3856 -82.9900 264° West 368 423 36,000 -49 Level Indianapolis Center
Sat 03:34:13 PM 40.3736 -83.1242 263° West 369 425 35,900  Descending Indianapolis Center
Sat 03:35:15 PM 40.3614 -83.2597 263° West 372 428 36,000 49 Climbing Indianapolis Center
Sat 03:36:16 PM 40.3492 -83.3947 263° West 373 429 36,000  Level Indianapolis Center
Sat 03:37:18 PM 40.3364 -83.5314 263° West 376 433 36,000  Level Indianapolis Center
Sat 03:38:19 PM 40.3236 -83.6689 263° West 379 436 36,000  Level Indianapolis Center
Sat 03:39:21 PM 40.3081 -83.8322 263° West 384 442 36,000  Level Indianapolis Center
Sat 03:40:22 PM 40.2947 -83.9700 263° West 382 440 36,000  Level Indianapolis Center
Sat 03:41:24 PM 40.2767 -84.1100 260° West 388 447 36,000  Level Indianapolis Center
Sat 03:42:25 PM 40.2469 -84.2500 254° West 396 456 36,000  Level Indianapolis Center
Sat 03:43:27 PM 40.2203 -84.3894 256° West 394 453 36,000  Level Indianapolis Center
Sat 03:44:28 PM 40.1944 -84.5292 256° West 393 452 36,000  Level Indianapolis Center
Sat 03:45:30 PM 40.1644 -84.6692 254° West 396 456 36,000  Level Indianapolis Center
Sat 03:46:31 PM 40.1367 -84.8075 255° West 393 452 36,000  Level Indianapolis Center
Sat 03:47:33 PM 40.1111 -84.9378 256° West 392 451 36,000  Level Indianapolis Center
Sat 03:48:34 PM 40.0783 -85.1022 255° West 392 451 36,000  Level Indianapolis Center
Sat 03:49:36 PM 40.0506 -85.2394 255° West 392 451 36,000  Level Indianapolis Center
Sat 03:50:37 PM 40.0225 -85.3772 255° West 394 453 36,000  Level Indianapolis Center
Sat 03:51:39 PM 39.9936 -85.5136 255° West 393 452 36,000  Level Indianapolis Center
Sat 03:52:40 PM 39.9653 -85.6522 255° West 395 455 36,000  Level Indianapolis Center
Sat 03:53:42 PM 39.9397 -85.7900 256° West 393 452 36,000  Level Indianapolis Center
Sat 03:54:43 PM 39.9231 -85.9283 261° West 390 449 36,000  Level Indianapolis Center
Sat 03:55:45 PM 39.9022 -86.0925 261° West 388 447 36,000  Level Indianapolis Center
Sat 03:56:46 PM 39.8844 -86.2294 260° West 391 450 36,000  Level Indianapolis Center
Sat 03:57:48 PM 39.8667 -86.3656 260° West 392 451 36,000  Level Indianapolis Center
Sat 03:58:49 PM 39.8475 -86.5025 260° West 392 451 36,000  Level Indianapolis Center
Sat 03:59:51 PM 39.8283 -86.6408 260° West 393 452 36,000  Level Indianapolis Center
Sat 04:00:52 PM 39.8050 -86.8064 260° West 392 451 36,000  Level Indianapolis Center
Sat 04:01:54 PM 39.7856 -86.9447 260° West 391 450 36,000  Level Indianapolis Center
Sat 04:02:55 PM 39.7661 -87.0833 260° West 391 450 36,000  Level Indianapolis Center
Sat 04:03:57 PM 39.7467 -87.2214 260° West 391 450 36,000  Level Indianapolis Center
Sat 04:04:58 PM 39.7275 -87.3608 260° West 393 452 36,000  Level Indianapolis Center
Sat 04:06:00 PM 39.7067 -87.4992 259° West 392 451 36,000  Level Indianapolis Center
Sat 04:07:01 PM 39.6869 -87.6392 260° West 394 453 36,000 98 Level Indianapolis Center
Sat 04:08:03 PM 39.6667 -87.7792 259° West 396 456 36,200 829 Climbing Indianapolis Center
Sat 04:09:04 PM 39.6414 -87.9453 259° West 393 452 37,700 878 Climbing Indianapolis Center
Sat 04:10:06 PM 39.6214 -88.0833 259° West 392 451 38,000 146 Climbing Indianapolis Center
Sat 04:11:07 PM 39.6006 -88.2219 259° West 393 452 38,000  Level Indianapolis Center
Sat 04:12:09 PM 39.5792 -88.3603 259° West 395 455 38,000  Level Indianapolis Center
Sat 04:13:10 PM 39.5578 -88.5011 259° West 397 457 38,000  Level Indianapolis Center
Sat 04:14:12 PM 39.5364 -88.6411 259° West 396 456 38,000  Level Indianapolis Center
Sat 04:15:13 PM 39.5158 -88.7831 259° West 397 457 38,000  Level Indianapolis Center
Sat 04:16:15 PM 39.4933 -88.9244 258° West 399 459 38,000  Level Indianapolis Center
Sat 04:17:21 PM 39.4642 -89.1000 258° West 403 464 38,000  Level Kansas City Center
Sat 04:18:22 PM 39.4417 -89.2436 259° West 406 467 38,000  Level Kansas City Center
Sat 04:19:24 PM 39.4175 -89.3919 258° West 404 465 38,000  Level Kansas City Center
Sat 04:20:25 PM 39.3944 -89.5333 258° West 405 466 38,000  Level Kansas City Center
Sat 04:21:27 PM 39.3711 -89.6769 258° West 408 470 38,000  Level Kansas City Center
Sat 04:22:28 PM 39.3475 -89.8203 258° West 410 472 38,000  Level Kansas City Center
Sat 04:23:29 PM 39.3242 -89.9622 258° West 408 470 38,000  Level Kansas City Center
Sat 04:24:31 PM 39.3006 -90.1042 258° West 407 468 38,000  Level Kansas City Center
Sat 04:25:32 PM 39.2719 -90.2744 258° West 408 470 38,000  Level Kansas City Center
Sat 04:26:34 PM 39.2472 -90.4153 257° West 407 468 38,000  Level Kansas City Center
Sat 04:27:35 PM 39.2239 -90.5553 258° West 404 465 38,000  Level Kansas City Center
Sat 04:28:37 PM 39.2000 -90.6944 258° West 402 463 38,000  Level Kansas City Center
Sat 04:29:38 PM 39.1761 -90.8311 257° West 399 459 38,000  Level Kansas City Center
Sat 04:30:39 PM 39.1511 -90.9675 257° West 396 456 38,000  Level Kansas City Center
Sat 04:31:41 PM 39.1225 -91.1319 257° West 395 455 38,000  Level Kansas City Center
Sat 04:32:42 PM 39.0975 -91.2694 257° West 395 455 38,000  Level Kansas City Center
Sat 04:33:44 PM 39.0733 -91.4111 258° West 397 457 38,000  Level Kansas City Center
Sat 04:34:45 PM 39.0497 -91.5442 257° West 395 455 38,000  Level Kansas City Center
Sat 04:35:46 PM 39.0247 -91.6822 257° West 397 457 38,000  Level Kansas City Center
Sat 04:36:48 PM 38.9972 -91.8269 256° West 402 463 38,000  Level Kansas City Center
Sat 04:37:49 PM 38.9714 -91.9661 257° West 402 463 38,000  Level Kansas City Center
Sat 04:38:51 PM 38.9447 -92.1044 256° West 402 463 38,000  Level Kansas City Center
Sat 04:39:52 PM 38.9189 -92.2453 257° West 404 465 38,000  Level Kansas City Center
Sat 04:40:54 PM 38.8864 -92.4122 256° West 403 464 38,000  Level Kansas City Center
Sat 04:41:55 PM 38.8592 -92.5517 256° West 403 464 38,000  Level Kansas City Center
Sat 04:42:56 PM 38.8322 -92.6936 256° West 407 468 38,000  Level Kansas City Center
Sat 04:43:58 PM 38.8036 -92.8369 256° West 412 474 38,000  Level Kansas City Center
Sat 04:44:59 PM 38.7750 -92.9806 256° West 415 478 38,000  Level Kansas City Center
Sat 04:46:01 PM 38.7478 -93.1206 256° West 411 473 38,000  Level Kansas City Center
Sat 04:47:02 PM 38.7203 -93.2622 256° West 410 472 38,000  Level Kansas City Center
Sat 04:48:03 PM 38.6914 -93.4019 255° West 408 470 38,000  Level Kansas City Center
Sat 04:49:05 PM 38.6592 -93.5694 256° West 406 467 38,000  Level Kansas City Center
Sat 04:50:06 PM 38.6308 -93.7081 255° West 404 465 38,000  Level Kansas City Center
Sat 04:51:08 PM 38.6025 -93.8431 255° West 406 467 38,000  Level Kansas City Center
Sat 04:52:09 PM 38.5758 -93.9767 256° West 406 467 38,000  Level Kansas City Center
Sat 04:53:10 PM 38.5447 -94.1306 256° West 402 463 38,000  Level Kansas City Center
Sat 04:54:12 PM 38.5161 -94.2644 255° West 407 468 38,000  Level Kansas City Center
Sat 04:55:13 PM 38.4878 -94.3986 255° West 407 468 38,000  Level Kansas City Center
Sat 04:56:15 PM 38.4553 -94.5567 255° West 409 471 38,000  Level Kansas City Center
Sat 04:57:16 PM 38.4264 -94.6911 255° West 409 471 38,000  Level Kansas City Center
Sat 04:58:17 PM 38.3939 -94.8472 255° West 408 470 38,000  Level Kansas City Center
Sat 04:59:19 PM 38.3647 -94.9794 254° West 405 466 38,000  Level Kansas City Center
Sat 05:00:20 PM 38.3372 -95.1131 255° West 405 466 38,000  Level Kansas City Center
Sat 05:01:22 PM 38.3031 -95.2650 254° West 403 464 38,000  Level Kansas City Center
Sat 05:02:23 PM 38.2750 -95.3967 255° West 401 461 38,000  Level Kansas City Center
Sat 05:03:25 PM 38.2461 -95.5253 254° West 397 457 38,000  Level Kansas City Center
Sat 05:04:26 PM 38.2128 -95.6786 255° West 401 461 38,000  Level Kansas City Center
Sat 05:05:27 PM 38.1833 -95.8094 254° West 403 464 38,000  Level Kansas City Center
Sat 05:06:29 PM 38.1486 -95.9625 254° West 402 463 38,000  Level Kansas City Center
Sat 05:07:30 PM 38.1197 -96.0947 255° West 404 465 38,000  Level Kansas City Center
Sat 05:08:32 PM 38.0883 -96.2289 253° West 407 468 38,000  Level Kansas City Center
Sat 05:09:33 PM 38.0572 -96.3678 254° West 409 471 38,000  Level Kansas City Center
Sat 05:10:34 PM 38.0250 -96.5050 253° West 408 470 38,000  Level Kansas City Center
Sat 05:11:36 PM 37.9939 -96.6431 254° West 407 468 38,000  Level Kansas City Center
Sat 05:12:37 PM 37.9553 -96.8078 253° West 406 467 38,000  Level Kansas City Center
Sat 05:13:39 PM 37.9233 -96.9442 254° West 403 464 38,000  Level Kansas City Center
Sat 05:14:40 PM 37.8914 -97.0792 253° West 401 461 38,000  Level Kansas City Center
Sat 05:15:41 PM 37.8592 -97.2158 253° West 403 464 38,000  Level Kansas City Center
Sat 05:16:43 PM 37.8264 -97.3519 253° West 404 465 38,000  Level Kansas City Center
Sat 05:17:44 PM 37.7958 -97.4800 253° West 406 467 38,000  Level Kansas City Center
Sat 05:18:46 PM 37.7547 -97.6431 252° West 406 467 38,000  Level Kansas City Center
Sat 05:19:47 PM 37.7233 -97.7831 254° West 410 472 38,000  Level Kansas City Center
Sat 05:20:48 PM 37.6892 -97.9200 253° West 410 472 38,000  Level Kansas City Center
Sat 05:21:50 PM 37.6569 -98.0556 253° West 405 466 38,000  Level Kansas City Center
Sat 05:22:51 PM 37.6261 -98.1797 253° West 401 461 38,000  Level Kansas City Center
Sat 05:23:53 PM 37.5917 -98.3158 252° West 405 466 38,000  Level Kansas City Center
Sat 05:24:54 PM 37.5589 -98.4500 253° West 402 463 38,000  Level Kansas City Center
Sat 05:25:55 PM 37.5186 -98.6114 253° West 402 463 38,000  Level Kansas City Center
Sat 05:26:57 PM 37.4856 -98.7447 253° West 399 459 38,000  Level Kansas City Center
Sat 05:27:58 PM 37.4522 -98.8789 253° West 401 461 38,000  Level Kansas City Center
Sat 05:28:59 PM 37.4169 -99.0114 252° West 400 460 38,000  Level Kansas City Center
Sat 05:30:01 PM 37.3819 -99.1431 252° West 398 458 38,000  Level Kansas City Center
Sat 05:31:02 PM 37.3472 -99.2761 252° West 399 459 38,000  Level Kansas City Center
Sat 05:32:03 PM 37.3122 -99.4097 252° West 402 463 38,000  Level Kansas City Center
Sat 05:33:05 PM 37.2764 -99.5553 253° West 399 459 38,000  Level Kansas City Center
Sat 05:34:06 PM 37.2422 -99.6836 252° West 402 463 38,000  Level Kansas City Center
Sat 05:35:08 PM 37.2033 -99.8331 252° West 403 464 38,000  Level Kansas City Center
Sat 05:36:09 PM 37.1706 -99.9603 252° West 401 461 38,000  Level Kansas City Center
Sat 05:37:10 PM 37.1356 -100.0875 251° West 402 463 38,000  Level Kansas City Center
Sat 05:38:12 PM 37.0956 -100.2381 252° West 405 466 38,000  Level Kansas City Center
Sat 05:39:13 PM 37.0614 -100.3664 252° West 405 466 38,000  Level Kansas City Center
Sat 05:40:15 PM 37.0203 -100.5150 251° West 404 465 38,000  Level Kansas City Center
Sat 05:41:16 PM 36.9858 -100.6439 252° West 406 467 38,000  Level Kansas City Center
Sat 05:42:17 PM 36.9506 -100.7722 251° West 406 467 38,000  Level Kansas City Center
Sat 05:43:19 PM 36.9106 -100.9197 251° West 403 464 38,000  Level Kansas City Center
Sat 05:44:20 PM 36.8739 -101.0483 250° West 406 467 38,000  Level Kansas City Center
Sat 05:45:22 PM 36.8331 -101.1958 251° West 403 464 38,000  Level Kansas City Center
Sat 05:46:23 PM 36.7983 -101.3217 251° West 402 463 38,000  Level Kansas City Center
Sat 05:47:25 PM 36.7628 -101.4483 251° West 402 463 38,000  Level Kansas City Center
Sat 05:48:26 PM 36.7208 -101.5956 250° West 403 464 38,000  Level Kansas City Center
Sat 05:48:51 PM 36.7094 -101.6397 252° West 405 466 38,000  Level Albuquerque Center
Sat 05:49:52 PM 36.6681 -101.7867 251° West 404 465 38,000  Level Albuquerque Center
Sat 05:50:54 PM 36.6311 -101.9150 250° West 408 470 38,000  Level Albuquerque Center
Sat 05:51:55 PM 36.5892 -102.0628 251° West 408 470 38,000  Level Albuquerque Center
Sat 05:52:56 PM 36.5514 -102.1947 250° West 408 470 38,000  Level Albuquerque Center
Sat 05:53:58 PM 36.5131 -102.3269 250° West 409 471 38,000  Level Albuquerque Center
Sat 05:54:59 PM 36.4739 -102.4594 250° West 409 471 38,000  Level Albuquerque Center
Sat 05:56:00 PM 36.4419 -102.5936 254° West 407 468 38,000  Level Albuquerque Center
Sat 05:57:01 PM 36.4169 -102.7294 257° West 407 468 38,000  Level Albuquerque Center
Sat 05:58:03 PM 36.3858 -102.8839 256° West 405 466 38,000  Level Albuquerque Center
Sat 05:59:04 PM 36.3603 -103.0217 257° West 406 467 38,000  Level Albuquerque Center
Sat 06:00:06 PM 36.3336 -103.1569 256° West 404 465 38,000  Level Albuquerque Center
Sat 06:01:08 PM 36.3072 -103.2942 257° West 406 467 38,000  Level Albuquerque Center
Sat 06:02:09 PM 36.2792 -103.4294 256° West 405 466 38,000  Level Albuquerque Center
Sat 06:03:10 PM 36.2517 -103.5642 256° West 402 463 38,000  Level Albuquerque Center
Sat 06:04:12 PM 36.2247 -103.6983 256° West 400 460 38,000  Level Albuquerque Center
Sat 06:05:13 PM 36.1961 -103.8342 255° West 404 465 38,000  Level Albuquerque Center
Sat 06:06:14 PM 36.1692 -103.9694 256° West 404 465 38,000  Level Albuquerque Center
Sat 06:07:15 PM 36.1411 -104.1033 255° West 402 463 38,000  Level Albuquerque Center
Sat 06:08:17 PM 36.1117 -104.2336 254° West 396 456 38,000  Level Albuquerque Center
Sat 06:09:18 PM 36.0792 -104.3908 256° West 401 461 38,000  Level Albuquerque Center
Sat 06:10:19 PM 36.0508 -104.5233 255° West 399 459 38,000  Level Albuquerque Center
Sat 06:11:20 PM 36.0236 -104.6567 256° West 399 459 38,000  Level Albuquerque Center
Sat 06:12:22 PM 35.9947 -104.7903 255° West 401 461 38,000  Level Albuquerque Center
Sat 06:13:23 PM 35.9650 -104.9244 255° West 403 464 38,000  Level Albuquerque Center
Sat 06:14:24 PM 35.9347 -105.0611 255° West 408 470 38,000  Level Albuquerque Center
Sat 06:15:25 PM 35.9053 -105.1944 255° West 404 465 38,000  Level Albuquerque Center
Sat 06:16:26 PM 35.8758 -105.3300 255° West 405 466 38,000  Level Albuquerque Center
Sat 06:17:28 PM 35.8469 -105.4644 255° West 405 466 38,000  Level Albuquerque Center
Sat 06:18:29 PM 35.8164 -105.5997 254° West 407 468 38,000  Level Albuquerque Center
Sat 06:19:30 PM 35.7867 -105.7347 255° West 410 472 38,000  Level Albuquerque Center
Sat 06:20:31 PM 35.7561 -105.8683 254° West 408 470 38,000  Level Albuquerque Center
Sat 06:21:33 PM 35.7261 -106.0031 255° West 408 470 38,000  Level Albuquerque Center
Sat 06:22:34 PM 35.6961 -106.1361 255° West 407 468 38,000  Level Albuquerque Center
Sat 06:23:35 PM 35.6628 -106.2947 256° West 405 466 38,000  Level Albuquerque Center
Sat 06:24:36 PM 35.6300 -106.4286 253° West 405 466 38,000  Level Albuquerque Center
Sat 06:25:37 PM 35.6011 -106.5594 255° West 401 461 38,000  Level Albuquerque Center
Sat 06:26:38 PM 35.5700 -106.6914 254° West 403 464 38,000  Level Albuquerque Center
Sat 06:27:40 PM 35.5392 -106.8231 254° West 403 464 38,000  Level Albuquerque Center
Sat 06:28:41 PM 35.5078 -106.9569 254° West 408 470 38,000  Level Albuquerque Center
Sat 06:29:42 PM 35.4764 -107.0894 254° West 408 470 38,000  Level Albuquerque Center
Sat 06:30:43 PM 35.4431 -107.2286 254° West 406 467 38,000  Level Albuquerque Center
Sat 06:31:44 PM 35.4072 -107.3761 253° West 404 465 38,000  Level Albuquerque Center
Sat 06:32:45 PM 35.3764 -107.5036 254° West 405 466 38,000  Level Albuquerque Center
Sat 06:33:47 PM 35.3461 -107.6311 254° West 406 467 38,000  Level Albuquerque Center
Sat 06:34:48 PM 35.3103 -107.7794 254° West 406 467 38,000  Level Albuquerque Center
Sat 06:35:49 PM 35.2786 -107.9064 253° West 406 467 38,000  Level Albuquerque Center
Sat 06:36:50 PM 35.2419 -108.0550 253° West 407 468 38,000  Level Albuquerque Center
Sat 06:37:52 PM 35.2119 -108.1817 254° West 405 466 38,000  Level Albuquerque Center
Sat 06:38:53 PM 35.1792 -108.3092 253° West 407 468 38,000  Level Albuquerque Center
Sat 06:39:54 PM 35.1436 -108.4575 254° West 407 468 38,000  Level Albuquerque Center
Sat 06:40:55 PM 35.1108 -108.5864 253° West 411 473 38,000  Level Albuquerque Center
Sat 06:41:56 PM 35.0792 -108.7133 253° West 409 471 38,000  Level Albuquerque Center
Sat 06:42:57 PM 35.0428 -108.8619 253° West 409 471 38,000  Level Albuquerque Center
Sat 06:43:59 PM 35.0086 -108.9875 252° West 407 468 38,000  Level Albuquerque Center
Sat 06:45:00 PM 34.9678 -109.1103 248° West 406 467 38,000  Level Albuquerque Center
Sat 06:46:01 PM 34.9189 -109.2508 247° West 403 464 38,000  Level Albuquerque Center
Sat 06:47:02 PM 34.8781 -109.3717 248° West 403 464 38,000 -934 Level Albuquerque Center
Sat 06:48:03 PM 34.8372 -109.4892 247° West 396 456 36,100 -984 Descending Albuquerque Center
Sat 06:49:04 PM 34.7881 -109.6242 246° West 389 448 36,000 -49 Descending Albuquerque Center
Sat 06:50:06 PM 34.7469 -109.7472 248° West 403 464 36,000  Level Albuquerque Center
Sat 06:51:07 PM 34.6967 -109.8894 247° West 408 470 36,000  Level Albuquerque Center
Sat 06:52:08 PM 34.6525 -110.0078 246° West 405 466 36,000  Level Albuquerque Center
Sat 06:53:09 PM 34.6092 -110.1308 247° West 411 473 36,000 -541 Level Albuquerque Center
Sat 06:54:10 PM 34.5608 -110.2717 247° West 407 468 34,900 -1,869 Descending Albuquerque Center
Sat 06:55:11 PM 34.5122 -110.3819 242° Southwest 394 453 32,200 -2,213 Descending Albuquerque Center
Sat 06:56:12 PM 34.4700 -110.5097 248° West 398 458 30,400 -1,805 Descending Albuquerque Center
Sat 06:57:14 PM 34.4267 -110.6233 245° Southwest 378 435 28,500 -1,854 Descending Albuquerque Center
Sat 06:58:15 PM 34.3842 -110.7319 245° Southwest 364 419 26,600 -1,918 Descending Albuquerque Center
Sat 06:59:16 PM 34.3261 -110.8347 236° Southwest 371 427 24,600 -1,967 Descending Albuquerque Center
Sat 07:00:17 PM 34.2544 -110.9244 226° Southwest 371 427 22,600 -1,902 Descending Albuquerque Center
Sat 07:01:19 PM 34.1875 -111.0111 227° Southwest 361 415 20,700 -1,805 Descending Albuquerque Center
Sat 07:02:20 PM 34.1242 -111.0936 227° Southwest 344 396 18,900 -1,820 Descending Albuquerque Center
Sat 07:03:21 PM 34.0611 -111.1733 226° Southwest 333 383 17,000 -1,967 Descending Albuquerque Center
Sat 07:04:22 PM 33.9903 -111.2664 227° Southwest 322 371 14,900 -1,918 Descending Albuquerque Center
Sat 07:05:23 PM 33.9317 -111.3400 226° Southwest 307 353 13,100 -1,377 Descending Albuquerque Center
Sat 07:06:24 PM 33.8761 -111.4117 227° Southwest 294 338 12,100 -1,033 Descending Albuquerque Center
Sat 07:07:25 PM 33.8142 -111.4628 214° Southwest 271 312 11,000 -976 Descending Albuquerque Center
Sat 07:08:27 PM 33.7514 -111.5183 216° Southwest 276 318 10,100 -927 Descending Albuquerque Center
Sat 07:09:28 PM 33.6894 -111.5703 215° Southwest 272 313 9,100 -836 Descending Albuquerque Center
Sat 07:10:29 PM 33.6314 -111.6197 215° Southwest 257 296 8,400 -885 Descending Albuquerque Center
Sat 07:11:30 PM 33.5764 -111.6675 216° Southwest 245 282 7,300 -984 Descending Albuquerque Center
Sat 07:12:31 PM 33.5372 -111.7297 233° Southwest 233 268 6,400 -1,033 Descending Albuquerque Center
Sat 07:13:32 PM 33.4986 -111.7900 232° Southwest 228 262 5,200 -1,220 Descending Albuquerque Center
Sat 07:14:34 PM 33.4642 -111.8436 232° Southwest 207 238 3,900 -1,122 Descending Albuquerque Center
Sat 07:15:35 PM 33.4414 -111.8975 243° Southwest 194 223 2,900 -977 Descending Albuquerque Center
Sat 07:16:00 PM 33.4333 -111.9333 255° West 155 178 2,500 -1,055 Descending Phoenix TRACON
Sat 07:17:06 PM 33.4333 -111.9833 270° West 148 170 1,300 -1,091 Descending Phoenix TRACON
Sat 07:19:00 PM 33.4343 -112.0116 270° West  Level Estimated

Login

Don't have an account? Register now (free) for customized features, flight alerts, and more!